createdAt,value
2018-07-21T00:00:15.424Z,8.10
2018-07-21T00:02:43.558Z,8.63
2018-07-21T00:05:11.744Z,8.60
2018-07-21T00:07:39.895Z,8.37
2018-07-21T00:10:07.993Z,9.17
2018-07-21T00:12:36.051Z,9.10
2018-07-21T00:15:04.529Z,9.93
2018-07-21T00:17:32.580Z,10.50
2018-07-21T00:20:00.663Z,9.83
2018-07-21T00:22:28.777Z,9.67
2018-07-21T00:24:56.924Z,10.20
2018-07-21T00:27:24.984Z,10.10
2018-07-21T00:29:53.048Z,9.63
2018-07-21T00:32:21.111Z,10.40
2018-07-21T00:34:49.242Z,10.00
2018-07-21T00:37:17.369Z,9.73
2018-07-21T00:39:45.460Z,10.33
2018-07-21T00:42:13.629Z,10.10
2018-07-21T00:44:41.716Z,10.00
2018-07-21T00:47:09.773Z,11.17
2018-07-21T00:49:37.883Z,9.40
2018-07-21T00:52:06.056Z,10.67
2018-07-21T00:54:34.149Z,10.47
2018-07-21T00:57:02.248Z,10.13
2018-07-21T00:59:30.359Z,10.90
2018-07-21T01:01:58.420Z,10.27
2018-07-21T01:04:26.614Z,10.83
2018-07-21T01:06:54.695Z,10.40
2018-07-21T01:09:22.714Z,10.47
2018-07-21T01:11:50.835Z,10.30
2018-07-21T01:14:19.144Z,9.97
2018-07-21T01:16:46.997Z,10.77
2018-07-21T01:19:15.195Z,10.97
2018-07-21T01:21:43.282Z,11.40
2018-07-21T01:24:11.401Z,11.53
2018-07-21T01:26:39.462Z,11.30
2018-07-21T01:29:07.546Z,10.90
2018-07-21T01:31:35.703Z,10.83
2018-07-21T01:34:03.800Z,11.73
2018-07-21T01:36:31.886Z,11.17
2018-07-21T01:38:59.935Z,11.50
2018-07-21T01:41:28.104Z,11.60
2018-07-21T01:43:56.176Z,11.40
2018-07-21T01:46:24.329Z,11.90
2018-07-21T01:48:52.394Z,11.53
2018-07-21T01:51:20.462Z,11.43
2018-07-21T01:53:48.522Z,11.93
2018-07-21T01:56:16.589Z,11.93
2018-07-21T01:58:44.698Z,12.53
2018-07-21T02:01:12.779Z,12.20
2018-07-21T02:03:44.400Z,12.57
2018-07-21T02:06:12.502Z,12.63
2018-07-21T02:08:40.803Z,13.50
2018-07-21T02:11:08.888Z,12.50
2018-07-21T02:13:36.960Z,12.53
2018-07-21T02:16:05.137Z,12.67
2018-07-21T02:18:33.236Z,13.37
2018-07-21T02:21:01.884Z,12.43
2018-07-21T02:23:29.704Z,13.07
2018-07-21T02:25:57.801Z,13.03
2018-07-21T02:28:25.899Z,12.37
2018-07-21T02:30:53.977Z,12.73
2018-07-21T02:33:21.794Z,12.60
2018-07-21T02:35:49.840Z,12.67
2018-07-21T02:38:17.921Z,13.03
2018-07-21T02:40:46.005Z,12.73
2018-07-21T02:43:14.052Z,13.00
2018-07-21T02:45:42.201Z,12.80
2018-07-21T02:48:10.246Z,13.10
2018-07-21T02:50:38.314Z,13.93
2018-07-21T02:53:06.521Z,13.67
2018-07-21T02:55:34.581Z,13.77
2018-07-21T02:58:03.006Z,13.10
2018-07-21T03:00:31.066Z,13.60
2018-07-21T03:02:59.193Z,13.23
2018-07-21T03:05:27.367Z,13.87
2018-07-21T03:07:55.410Z,14.37
2018-07-21T03:10:23.516Z,13.57
2018-07-21T03:12:51.605Z,13.27
2018-07-21T03:15:19.661Z,13.27
2018-07-21T03:17:47.737Z,13.77
2018-07-21T03:20:15.842Z,12.77
2018-07-21T03:22:43.935Z,12.13
2018-07-21T03:25:11.973Z,13.57
2018-07-21T03:27:40.109Z,14.13
2018-07-21T03:30:08.167Z,13.37
2018-07-21T03:32:36.241Z,13.43
2018-07-21T03:35:04.320Z,13.67
2018-07-21T03:37:32.418Z,13.17
2018-07-21T03:40:00.513Z,14.10
2018-07-21T03:42:28.613Z,13.47
2018-07-21T03:44:57.306Z,13.77
2018-07-21T03:47:25.378Z,13.70
2018-07-21T03:49:53.475Z,14.03
2018-07-21T03:52:21.537Z,13.30
2018-07-21T03:54:49.591Z,14.10
2018-07-21T03:57:17.662Z,13.00
2018-07-21T03:59:45.728Z,14.47
2018-07-21T04:02:13.832Z,13.67
2018-07-21T04:04:41.894Z,12.90
2018-07-21T04:07:09.934Z,13.37
2018-07-21T04:09:38.005Z,12.97
2018-07-21T04:12:06.090Z,13.37
2018-07-21T04:14:33.946Z,14.37
2018-07-21T04:17:01.759Z,14.80
2018-07-21T04:19:29.812Z,13.90
2018-07-21T04:21:57.932Z,12.53
2018-07-21T04:24:26.002Z,14.70
2018-07-21T04:26:54.115Z,14.87
2018-07-21T04:29:21.938Z,14.13
2018-07-21T04:31:50.036Z,14.60
2018-07-21T04:34:17.899Z,14.63
2018-07-21T04:36:45.954Z,15.37
2018-07-21T04:39:14.017Z,15.07
2018-07-21T04:41:42.482Z,14.97
2018-07-21T04:44:10.628Z,15.40
2018-07-21T04:46:38.669Z,14.73
2018-07-21T04:49:06.768Z,14.43
2018-07-21T04:51:34.833Z,14.37
2018-07-21T04:54:03.012Z,15.00
2018-07-21T04:56:31.133Z,15.03
2018-07-21T04:58:59.225Z,14.60
2018-07-21T05:01:27.342Z,15.80
2018-07-21T05:03:56.360Z,14.87
2018-07-21T05:06:24.468Z,13.67
2018-07-21T05:08:52.546Z,14.23
2018-07-21T05:11:20.580Z,14.50
2018-07-21T05:13:48.701Z,13.50
2018-07-21T05:16:17.104Z,14.30
2018-07-21T05:18:45.186Z,13.50
2018-07-21T05:21:13.276Z,14.53
2018-07-21T05:23:41.359Z,14.40
2018-07-21T05:26:10.085Z,13.67
2018-07-21T05:28:37.924Z,14.37
2018-07-21T05:31:05.972Z,13.10
2018-07-21T05:33:34.918Z,13.33
2018-07-21T05:36:03.013Z,13.53
2018-07-21T05:38:31.092Z,14.10
2018-07-21T05:40:59.208Z,14.70
2018-07-21T05:43:27.314Z,14.57
2018-07-21T05:45:55.153Z,12.53
2018-07-21T05:48:23.302Z,15.37
2018-07-21T05:50:51.453Z,13.90
2018-07-21T05:53:20.317Z,15.03
2018-07-21T05:55:48.369Z,14.03
2018-07-21T05:58:16.789Z,13.73
2018-07-21T06:00:44.829Z,14.07
2018-07-21T06:03:12.952Z,13.20
2018-07-21T06:05:40.989Z,12.90
2018-07-21T06:08:09.291Z,11.10
2018-07-21T06:10:37.427Z,12.33
2018-07-21T06:13:05.546Z,12.60
2018-07-21T06:15:33.653Z,12.23
2018-07-21T06:18:01.935Z,13.07
2018-07-21T06:20:29.987Z,12.33
2018-07-21T06:22:58.071Z,12.67
2018-07-21T06:25:26.224Z,12.33
2018-07-21T06:27:54.479Z,12.07
2018-07-21T06:30:22.373Z,11.60
2018-07-21T06:32:50.551Z,11.23
2018-07-21T06:35:18.621Z,10.93
2018-07-21T06:37:46.721Z,11.70
2018-07-21T06:40:14.818Z,11.47
2018-07-21T06:42:42.933Z,11.07
2018-07-21T06:45:10.989Z,11.00
2018-07-21T06:47:39.073Z,11.17
2018-07-21T06:50:08.016Z,10.53
2018-07-21T06:52:36.312Z,10.83
2018-07-21T06:55:04.408Z,10.50
2018-07-21T06:57:32.666Z,11.63
2018-07-21T07:00:00.829Z,10.70
2018-07-21T07:02:28.888Z,10.77
2018-07-21T07:04:56.941Z,10.70
2018-07-21T07:07:25.053Z,11.00
2018-07-21T07:09:53.140Z,10.87
2018-07-21T07:12:21.202Z,11.33
2018-07-21T07:14:49.263Z,10.23
2018-07-21T07:17:17.367Z,10.80
2018-07-21T07:19:45.435Z,10.43
2018-07-21T07:22:13.523Z,10.40
2018-07-21T07:24:41.643Z,10.93
2018-07-21T07:27:09.827Z,9.93
2018-07-21T07:29:37.949Z,9.60
2018-07-21T07:32:06.830Z,9.47
2018-07-21T07:34:35.559Z,10.07
2018-07-21T07:37:04.839Z,10.40
2018-07-21T07:39:32.930Z,9.43
2018-07-21T07:42:01.116Z,8.63
2018-07-21T07:44:29.240Z,8.50
2018-07-21T07:46:57.374Z,7.67
2018-07-21T07:49:25.519Z,7.10
2018-07-21T07:51:53.635Z,6.80
2018-07-21T07:54:21.718Z,6.30
2018-07-21T07:56:49.854Z,6.97
2018-07-21T07:59:17.937Z,7.43
2018-07-21T08:01:46.004Z,7.23
2018-07-21T08:04:14.112Z,7.80
2018-07-21T08:06:42.227Z,7.97
2018-07-21T08:09:12.028Z,8.30
2018-07-21T08:11:40.602Z,7.80
2018-07-21T08:14:08.723Z,7.53
2018-07-21T08:16:37.006Z,7.40
2018-07-21T08:19:05.853Z,7.47
2018-07-21T08:21:33.988Z,7.67
2018-07-21T08:24:02.125Z,7.93
2018-07-21T08:26:29.979Z,7.13
2018-07-21T08:28:58.091Z,6.83
2018-07-21T08:31:26.255Z,6.73
2018-07-21T08:33:54.464Z,6.43
2018-07-21T08:36:22.583Z,6.70
2018-07-21T08:38:50.683Z,5.37
2018-07-21T08:41:18.725Z,6.70
2018-07-21T08:43:46.791Z,5.40
2018-07-21T08:46:14.930Z,5.13
2018-07-21T08:48:43.014Z,5.90
2018-07-21T08:51:11.084Z,4.60
2018-07-21T08:53:39.217Z,5.20
2018-07-21T08:56:07.380Z,5.20
2018-07-21T08:58:35.185Z,5.43
2018-07-21T09:01:03.344Z,4.40
2018-07-21T09:03:31.427Z,5.10
2018-07-21T09:05:59.561Z,5.13
2018-07-21T09:08:27.673Z,5.83
2018-07-21T09:10:55.835Z,5.27
2018-07-21T09:13:23.960Z,5.10
2018-07-21T09:15:52.062Z,5.30
2018-07-21T09:18:20.194Z,4.80
2018-07-21T09:20:48.339Z,5.07
2018-07-21T09:23:16.406Z,5.53
2018-07-21T09:25:44.556Z,5.33
2018-07-21T09:28:12.772Z,5.10
2018-07-21T09:30:40.883Z,4.80
2018-07-21T09:33:09.082Z,7.80
2018-07-21T09:35:37.181Z,6.03
2018-07-21T09:38:05.492Z,6.60
2018-07-21T09:40:33.325Z,5.77
2018-07-21T09:43:01.405Z,4.33
2018-07-21T09:45:29.531Z,5.00
2018-07-21T09:47:57.630Z,4.63
2018-07-21T09:50:25.738Z,4.73
2018-07-21T09:52:53.861Z,4.47
2018-07-21T09:55:21.953Z,4.33
2018-07-21T09:57:50.046Z,4.57
2018-07-21T10:00:23.619Z,4.10
2018-07-21T10:02:51.725Z,3.73
2018-07-21T10:05:19.666Z,4.03
2018-07-21T10:07:48.111Z,3.00
2018-07-21T10:10:16.225Z,2.10
2018-07-21T10:12:45.130Z,2.23
2018-07-21T10:15:13.509Z,2.10
2018-07-21T10:17:41.711Z,2.63
2018-07-21T10:20:09.838Z,2.83
2018-07-21T10:22:38.140Z,3.00
2018-07-21T10:25:11.689Z,2.97
2018-07-21T10:27:45.043Z,3.00
2018-07-21T10:30:13.237Z,2.67
2018-07-21T10:32:41.335Z,2.77
2018-07-21T10:35:09.432Z,2.73
2018-07-21T10:37:37.557Z,2.57
2018-07-21T10:40:05.715Z,2.90
2018-07-21T10:42:33.845Z,2.90
2018-07-21T10:45:02.080Z,2.77
2018-07-21T10:47:30.260Z,2.50
2018-07-21T10:49:58.336Z,2.63
2018-07-21T10:52:26.435Z,3.00
2018-07-21T10:54:54.620Z,3.33
2018-07-21T10:57:22.746Z,3.50
2018-07-21T10:59:51.568Z,3.80
2018-07-21T11:02:19.661Z,3.43
2018-07-21T11:04:47.727Z,4.40
2018-07-21T11:07:15.986Z,4.00
2018-07-21T11:09:44.172Z,4.20
2018-07-21T11:12:12.446Z,4.33
2018-07-21T11:14:40.611Z,4.70
2018-07-21T11:17:08.770Z,4.33
2018-07-21T11:19:37.541Z,5.10
2018-07-21T11:22:05.891Z,4.70
2018-07-21T11:24:33.987Z,4.73
2018-07-21T11:27:02.078Z,5.50
2018-07-21T11:29:30.210Z,5.47
2018-07-21T11:31:58.347Z,5.50
2018-07-21T11:34:26.429Z,5.70
2018-07-21T11:36:54.506Z,5.17
2018-07-21T11:39:22.686Z,5.65
2018-07-21T11:41:50.876Z,5.33
2018-07-21T11:44:19.227Z,5.60
2018-07-21T11:46:47.371Z,5.40
2018-07-21T11:49:15.477Z,5.33
2018-07-21T11:51:43.638Z,5.65
2018-07-21T11:54:11.740Z,5.70
2018-07-21T11:56:39.817Z,6.20
2018-07-21T11:59:07.928Z,5.83
2018-07-21T12:01:36.067Z,6.10
2018-07-21T12:04:04.153Z,5.75
2018-07-21T12:06:32.225Z,6.83
2018-07-21T12:09:00.325Z,6.25
2018-07-21T12:11:28.453Z,5.85
2018-07-21T12:13:56.540Z,5.75
2018-07-21T12:16:24.705Z,5.58
2018-07-21T12:18:52.909Z,6.10
2018-07-21T12:21:21.198Z,5.83
2018-07-21T12:23:49.056Z,5.50
2018-07-21T12:26:17.337Z,5.67
2018-07-21T12:28:45.659Z,5.33
2018-07-21T12:31:13.828Z,5.20
2018-07-21T12:33:42.144Z,5.83
2018-07-21T12:36:10.329Z,5.40
2018-07-21T12:38:38.516Z,6.23
2018-07-21T12:41:08.252Z,6.20
2018-07-21T12:43:36.391Z,5.83
2018-07-21T12:46:04.329Z,6.17
2018-07-21T12:48:32.503Z,6.00
2018-07-21T12:51:00.651Z,5.80
2018-07-21T12:53:28.865Z,5.60
2018-07-21T12:55:56.937Z,5.77
2018-07-21T12:58:25.129Z,5.53
2018-07-21T13:00:53.257Z,5.70
2018-07-21T13:03:21.465Z,5.67
2018-07-21T13:05:49.587Z,5.07
2018-07-21T13:08:17.640Z,5.30
2018-07-21T13:10:45.776Z,5.47
2018-07-21T13:13:13.997Z,5.90
2018-07-21T13:15:42.180Z,5.57
2018-07-21T13:18:10.976Z,5.53
2018-07-21T13:20:39.146Z,5.67
2018-07-21T13:23:07.332Z,5.47
2018-07-21T13:25:35.582Z,6.07
2018-07-21T13:28:03.747Z,5.40
2018-07-21T13:30:31.860Z,4.70
2018-07-21T13:32:59.977Z,5.00
2018-07-21T13:35:28.079Z,4.53
2018-07-21T13:37:56.193Z,4.47
2018-07-21T13:40:24.386Z,4.63
2018-07-21T13:42:52.505Z,4.33
2018-07-21T13:45:20.709Z,4.40
2018-07-21T13:47:48.813Z,4.50
2018-07-21T13:50:16.987Z,4.30
2018-07-21T13:52:45.153Z,4.47
2018-07-21T13:55:13.256Z,4.07
2018-07-21T13:57:41.364Z,4.60
2018-07-21T14:00:09.583Z,4.43
2018-07-21T14:02:37.449Z,4.67
2018-07-21T14:05:05.763Z,4.43
2018-07-21T14:07:33.890Z,4.60
2018-07-21T14:10:02.044Z,4.30
2018-07-21T14:12:29.913Z,5.67
2018-07-21T14:14:57.996Z,4.90
2018-07-21T14:17:26.183Z,5.50
2018-07-21T14:19:54.367Z,5.63
2018-07-21T14:22:22.503Z,5.50
2018-07-21T14:24:50.665Z,5.80
2018-07-21T14:27:18.764Z,5.70
2018-07-21T14:29:46.998Z,5.30
2018-07-21T14:32:15.099Z,5.40
2018-07-21T14:34:47.674Z,4.60
2018-07-21T14:37:15.900Z,4.90
2018-07-21T14:39:50.304Z,5.27
2018-07-21T14:42:35.907Z,4.90
2018-07-21T14:45:04.533Z,4.87
2018-07-21T14:47:32.736Z,5.27
2018-07-21T14:50:01.003Z,4.60
2018-07-21T14:52:29.147Z,4.93
2018-07-21T14:55:00.599Z,5.67
2018-07-21T14:57:59.585Z,6.27
2018-07-21T15:00:40.762Z,6.73
2018-07-21T15:03:09.359Z,6.43
2018-07-21T15:05:37.518Z,6.30
2018-07-21T15:08:05.780Z,6.30
2018-07-21T15:10:33.968Z,5.97
2018-07-21T15:13:02.147Z,5.93
2018-07-21T15:15:31.345Z,6.20
2018-07-21T15:17:59.493Z,6.23
2018-07-21T15:20:27.726Z,5.87
2018-07-21T15:22:55.828Z,6.70
2018-07-21T15:25:24.255Z,6.23
2018-07-21T15:27:52.503Z,5.60
2018-07-21T15:30:20.728Z,6.10
2018-07-21T15:32:48.949Z,6.20
2018-07-21T15:35:16.833Z,6.20
2018-07-21T15:37:44.712Z,6.07
2018-07-21T15:40:12.862Z,6.53
2018-07-21T15:42:41.019Z,6.40
2018-07-21T15:45:09.208Z,6.47
2018-07-21T15:47:37.465Z,6.43
2018-07-21T15:50:05.646Z,6.87
2018-07-21T15:52:33.792Z,6.67
2018-07-21T15:55:01.910Z,7.10
2018-07-21T15:57:30.059Z,6.80
2018-07-21T15:59:58.139Z,7.40
2018-07-21T16:02:26.387Z,7.00
2018-07-21T16:04:54.421Z,6.90
2018-07-21T16:07:22.524Z,7.33
2018-07-21T16:09:50.619Z,6.50
2018-07-21T16:12:18.750Z,5.93
2018-07-21T16:14:46.925Z,6.33
2018-07-21T16:17:15.061Z,6.50
2018-07-21T16:19:43.180Z,6.57
2018-07-21T16:22:11.325Z,7.03
2018-07-21T16:24:39.486Z,7.03
2018-07-21T16:27:07.552Z,6.47
2018-07-21T16:29:35.768Z,6.50
2018-07-21T16:32:03.967Z,6.77
2018-07-21T16:34:32.159Z,7.03
2018-07-21T16:37:00.249Z,6.73
2018-07-21T16:39:28.369Z,7.13
2018-07-21T16:41:56.518Z,6.70
2018-07-21T16:44:24.683Z,8.17
2018-07-21T16:47:02.247Z,7.60
2018-07-21T16:49:37.499Z,7.57
2018-07-21T16:52:06.022Z,6.80
2018-07-21T16:54:34.129Z,6.80
2018-07-21T16:57:02.264Z,6.80
2018-07-21T16:59:30.146Z,6.50
2018-07-21T17:01:58.280Z,6.93
2018-07-21T17:04:26.415Z,7.10
2018-07-21T17:06:54.569Z,6.50
2018-07-21T17:09:22.737Z,7.43
2018-07-21T17:11:51.371Z,6.97
2018-07-21T17:14:19.543Z,5.83
2018-07-21T17:16:47.816Z,6.67
2018-07-21T17:19:15.959Z,6.40
2018-07-21T17:21:44.130Z,5.53
2018-07-21T17:24:12.261Z,5.50
2018-07-21T17:26:40.458Z,5.63
2018-07-21T17:29:08.612Z,5.53
2018-07-21T17:31:36.760Z,6.13
2018-07-21T17:34:04.879Z,5.30
2018-07-21T17:36:32.984Z,5.23
2018-07-21T17:39:01.234Z,5.23
2018-07-21T17:41:29.366Z,5.13
2018-07-21T17:43:57.602Z,5.50
2018-07-21T17:46:25.909Z,6.33
2018-07-21T17:48:54.018Z,6.47
2018-07-21T17:51:22.113Z,6.70
2018-07-21T17:53:50.195Z,6.83
2018-07-21T17:56:18.301Z,6.70
2018-07-21T17:58:46.485Z,7.03
2018-07-21T18:01:14.592Z,6.53
2018-07-21T18:03:42.504Z,5.67
2018-07-21T18:06:10.662Z,6.07
2018-07-21T18:08:38.785Z,4.87
2018-07-21T18:11:07.014Z,4.70
2018-07-21T18:13:35.608Z,4.97
2018-07-21T18:16:03.808Z,5.27
2018-07-21T18:18:31.913Z,5.03
2018-07-21T18:21:00.102Z,4.90
2018-07-21T18:23:28.540Z,5.83
2018-07-21T18:25:56.669Z,5.50
2018-07-21T18:28:24.817Z,6.23
2018-07-21T18:30:52.956Z,5.63
2018-07-21T18:33:21.131Z,5.60
2018-07-21T18:35:49.425Z,5.33
2018-07-21T18:38:17.333Z,5.63
2018-07-21T18:40:45.488Z,5.70
2018-07-21T18:43:13.595Z,5.70
2018-07-21T18:45:41.713Z,5.27
2018-07-21T18:48:09.860Z,5.53
2018-07-21T18:50:37.948Z,4.70
2018-07-21T18:53:06.048Z,4.97
2018-07-21T18:55:34.181Z,4.50
2018-07-21T18:58:02.348Z,4.40
2018-07-21T19:00:30.434Z,4.00
2018-07-21T19:02:58.486Z,4.33
2018-07-21T19:05:26.533Z,4.33
2018-07-21T19:07:54.611Z,4.00
2018-07-21T19:10:22.783Z,4.23
2018-07-21T19:12:50.961Z,4.10
2018-07-21T19:15:25.305Z,4.37
2018-07-21T19:17:53.484Z,3.70
2018-07-21T19:20:27.149Z,4.63
2018-07-21T19:22:55.237Z,3.83
2018-07-21T19:25:28.916Z,4.50
2018-07-21T19:27:57.135Z,4.20
2018-07-21T19:30:25.205Z,4.70
2018-07-21T19:32:59.868Z,4.70
2018-07-21T19:35:29.622Z,4.73
2018-07-21T19:37:58.060Z,4.10
2018-07-21T19:40:26.166Z,3.97
2018-07-21T19:42:54.405Z,4.30
2018-07-21T19:45:22.612Z,4.50
2018-07-21T19:47:50.874Z,4.53
2018-07-21T19:50:18.866Z,4.83
2018-07-21T19:52:47.078Z,4.80
2018-07-21T19:55:15.167Z,4.73
2018-07-21T19:57:43.429Z,4.73
2018-07-21T20:00:11.546Z,4.67
2018-07-21T20:02:39.696Z,4.00
2018-07-21T20:05:07.796Z,3.83
2018-07-21T20:07:35.878Z,4.43
2018-07-21T20:10:04.321Z,4.20
2018-07-21T20:12:32.425Z,3.93
2018-07-21T20:15:01.550Z,3.73
2018-07-21T20:17:29.654Z,3.53
2018-07-21T20:19:57.731Z,2.90
2018-07-21T20:22:25.789Z,3.53
2018-07-21T20:24:53.882Z,3.07
2018-07-21T20:27:21.943Z,3.53
2018-07-21T20:29:50.062Z,2.87
2018-07-21T20:32:18.205Z,3.37
2018-07-21T20:34:46.255Z,3.20
2018-07-21T20:37:14.335Z,3.37
2018-07-21T20:39:42.220Z,3.30
2018-07-21T20:42:10.273Z,2.97
2018-07-21T20:44:38.518Z,3.53
2018-07-21T20:47:06.621Z,3.27
2018-07-21T20:49:34.760Z,3.20
2018-07-21T20:52:02.893Z,3.10
2018-07-21T20:54:30.740Z,3.40
2018-07-21T20:56:58.932Z,3.30
2018-07-21T20:59:27.150Z,3.10
2018-07-21T21:01:55.492Z,3.07
2018-07-21T21:04:23.315Z,2.73
2018-07-21T21:06:51.772Z,2.90
2018-07-21T21:09:19.857Z,2.97
2018-07-21T21:11:48.021Z,2.60
2018-07-21T21:14:16.240Z,2.90
2018-07-21T21:16:44.510Z,3.17
2018-07-21T21:19:12.617Z,3.00
2018-07-21T21:21:40.685Z,2.50
2018-07-21T21:24:08.546Z,3.20
2018-07-21T21:26:36.385Z,3.00
2018-07-21T21:29:04.530Z,3.13
2018-07-21T21:31:32.655Z,2.77
2018-07-21T21:34:00.686Z,2.60
2018-07-21T21:36:28.773Z,3.10
2018-07-21T21:38:56.835Z,2.50
2018-07-21T21:41:25.287Z,2.97
2018-07-21T21:43:53.556Z,2.97
2018-07-21T21:46:21.696Z,2.60
2018-07-21T21:48:49.892Z,2.87
2018-07-21T21:51:17.976Z,2.87
2018-07-21T21:53:46.141Z,3.20
2018-07-21T21:56:14.272Z,3.17
2018-07-21T21:58:42.407Z,2.80
2018-07-21T22:01:11.862Z,3.00
2018-07-21T22:03:40.021Z,2.90
2018-07-21T22:06:08.251Z,3.10
2018-07-21T22:08:36.323Z,3.10
2018-07-21T22:11:04.787Z,2.80
2018-07-21T22:13:32.820Z,2.80
2018-07-21T22:16:01.032Z,3.73
2018-07-21T22:18:29.921Z,3.00
2018-07-21T22:20:58.620Z,2.97
2018-07-21T22:23:26.721Z,3.30
2018-07-21T22:25:54.818Z,2.70
2018-07-21T22:28:22.934Z,3.37
2018-07-21T22:30:51.023Z,2.87
2018-07-21T22:33:19.146Z,3.10
2018-07-21T22:35:47.297Z,2.87
2018-07-21T22:38:15.364Z,3.17
2018-07-21T22:40:43.510Z,3.17
2018-07-21T22:43:11.596Z,3.23
2018-07-21T22:45:39.767Z,3.40
2018-07-21T22:48:07.933Z,3.63
2018-07-21T22:50:36.090Z,2.90
2018-07-21T22:53:04.417Z,3.43
2018-07-21T22:55:32.505Z,3.53
2018-07-21T22:58:00.556Z,3.30
2018-07-21T23:00:28.633Z,3.30
2018-07-21T23:02:56.715Z,3.50
2018-07-21T23:05:24.796Z,3.77
2018-07-21T23:07:52.908Z,3.50
2018-07-21T23:10:21.030Z,3.80
2018-07-21T23:12:49.181Z,4.47
2018-07-21T23:15:17.284Z,4.80
2018-07-21T23:17:45.387Z,4.97
2018-07-21T23:20:13.237Z,4.63
2018-07-21T23:22:41.307Z,4.47
2018-07-21T23:25:09.388Z,4.90
2018-07-21T23:27:37.454Z,5.43
2018-07-21T23:30:05.380Z,4.53
2018-07-21T23:32:33.526Z,5.23
2018-07-21T23:35:01.621Z,4.47
2018-07-21T23:37:29.682Z,5.37
2018-07-21T23:39:57.760Z,6.23
2018-07-21T23:42:25.969Z,5.37
2018-07-21T23:44:54.051Z,5.03
2018-07-21T23:47:22.193Z,5.10
2018-07-21T23:49:50.271Z,4.67
2018-07-21T23:52:18.400Z,5.30
2018-07-21T23:54:46.459Z,5.53
2018-07-21T23:57:14.589Z,5.70
2018-07-21T23:59:42.663Z,5.77
